Brookhaven Weather

Current Time: 15:05 Zulu

HWV METARs

Local Time Temperature Dew Point Wind Direction Wind Speed Wind Gust Sky Vis.
5/28/2020 2:56:00 PM 21.1° c 16.7° c 180° 9 kt - OVC 3800 ft AGL 10.0 sm
5/28/2020 2:04:00 PM 20.6° c 17.8° c 210° 8 kt - FEW 500 ft AGL 10.0 sm
5/28/2020 1:56:00 PM 20.6° c 17.8° c 200° 9 kt - BKN 500 ft AGL 10.0 sm
5/28/2020 1:13:00 PM 19.4° c 17.8° c 200° 6 kt - OVC 300 ft AGL 7.0 sm
5/28/2020 12:56:00 PM 19.4° c 17.2° c 190° 5 kt - OVC 200 ft AGL 7.0 sm
5/28/2020 11:56:00 AM 18.3° c 17.2° c 190° 6 kt - OVC 200 ft AGL 5.0 sm
5/28/2020 11:38:00 AM 18.3° c 16.7° c 180° 6 kt - OVC 200 ft AGL 4.0 sm
5/28/2020 11:28:00 AM 18.3° c 16.7° c 190° 6 kt - OVC 200 ft AGL 2.5 sm

ISP TAF:

KISP 281512Z 2815/2912 18011KT P6SM FEW006 OVC040 
FM281600 17010KT P6SM BKN012 
FM281800 16013KT 5SM BR SCT008 OVC012 
FM290000 17010KT 3SM BR OVC007 
FM290400 19011KT 1SM BR OVC004
Weather data provided by aviationweather.gov. Pilots must verify weather before flying.